Time;durP1;ratioP1;P1;durP2;ratioP2;P2;SDS_P1;SDS_P2;PMS_P1;PMS_P2;Temp;Humidity;BMP_temperature;BMP_pressure;BME280_temperature;BME280_humidity;BME280_pressure;Samples;Min_cycle;Max_cycle;Signal;HPM_P1;HPM_P2
2022/08/27 00:00:13;;;;;;;7.18;5.07;;;18.40;99.90;;;;;;4956504;28;20411;-80
2022/08/27 00:02:38;;;;;;;11.63;8.25;;;18.30;99.70;;;;;;4978912;28;20046;-81
2022/08/27 00:05:04;;;;;;;9.35;8.55;;;18.30;99.90;;;;;;4954341;28;20044;-78
2022/08/27 00:07:30;;;;;;;11.07;7.53;;;18.40;99.90;;;;;;4965687;28;20034;-79
2022/08/27 00:09:55;;;;;;;12.00;9.60;;;18.30;99.90;;;;;;4947762;28;20037;-77
2022/08/27 00:12:21;;;;;;;18.00;10.75;;;18.30;99.90;;;;;;4951812;28;20093;-79
2022/08/27 00:14:47;;;;;;;20.17;11.30;;;18.20;99.90;;;;;;4978554;28;20421;-79
2022/08/27 00:17:12;;;;;;;13.63;12.23;;;18.10;99.90;;;;;;4962263;28;20034;-79
2022/08/27 00:19:38;;;;;;;15.60;13.10;;;18.10;99.90;;;;;;4979656;28;20556;-78
2022/08/27 00:22:17;;;;;;;;;;;;;;;;;;;;;
2022/08/27 00:24:46;;;;;;;16.50;12.85;;;18.10;99.90;;;;;;4961238;28;20060;-78
2022/08/27 00:27:11;;;;;;;16.08;13.27;;;18.10;99.90;;;;;;4959990;28;20061;-79
2022/08/27 00:29:37;;;;;;;17.23;13.55;;;18.10;99.90;;;;;;4980039;28;20061;-79
2022/08/27 00:32:03;;;;;;;16.88;14.05;;;18.00;99.90;;;;;;4950760;28;20119;-79
2022/08/27 00:34:28;;;;;;;10.82;9.73;;;18.00;99.90;;;;;;4968923;28;20526;-78
2022/08/27 00:36:54;;;;;;;9.15;7.95;;;18.10;99.90;;;;;;4957669;28;20030;-79
2022/08/27 00:39:19;;;;;;;15.63;11.98;;;18.10;99.90;;;;;;4986029;28;20033;-80
2022/08/27 00:41:45;;;;;;;17.60;11.00;;;18.10;99.90;;;;;;4979523;28;20360;-78
2022/08/27 00:44:11;;;;;;;20.20;11.07;;;18.10;99.90;;;;;;4968034;28;20059;-78
2022/08/27 00:46:53;;;;;;;13.18;10.98;;;18.10;99.90;;;;;;4968281;28;20109;-79
2022/08/27 00:49:23;;;;;;;15.38;11.45;;;18.00;99.90;;;;;;4971469;28;20544;-78
2022/08/27 00:52:00;;;;;;;7.75;6.38;;;18.00;99.90;;;;;;4981381;28;20462;-78
2022/08/27 00:54:26;;;;;;;15.77;10.00;;;18.10;99.90;;;;;;4980000;28;20031;-79
2022/08/27 00:56:51;;;;;;;12.68;9.30;;;18.10;99.90;;;;;;4973399;28;20141;-78
2022/08/27 00:59:18;;;;;;;16.85;8.77;;;17.90;99.90;;;;;;4967705;28;20505;-79
2022/08/27 01:04:29;;;;;;;13.88;7.85;;;17.90;99.90;;;;;;4973388;28;20037;-78
2022/08/27 01:06:55;;;;;;;9.50;6.70;;;17.90;99.90;;;;;;4951166;28;20030;-79
2022/08/27 01:09:20;;;;;;;8.98;6.03;;;17.90;99.90;;;;;;4961977;28;20486;-79
2022/08/27 01:11:46;;;;;;;7.65;5.45;;;17.90;99.90;;;;;;4981987;28;20117;-78
2022/08/27 01:14:12;;;;;;;11.35;7.22;;;17.90;99.90;;;;;;4954493;28;20165;-80
2022/08/27 01:16:46;;;;;;;11.32;8.05;;;18.00;99.90;;;;;;4980649;28;20124;-79
2022/08/27 01:19:28;;;;;;;11.43;7.40;;;17.90;99.90;;;;;;4963336;28;20038;-79
2022/08/27 01:22:02;;;;;;;19.95;7.20;;;17.90;99.90;;;;;;4968512;28;20141;-79
2022/08/27 01:24:38;;;;;;;14.50;7.35;;;17.90;99.90;;;;;;4956246;28;20053;-79
2022/08/27 01:27:06;;;;;;;11.45;6.00;;;17.80;99.90;;;;;;4962781;28;20582;-81
2022/08/27 01:29:31;;;;;;;15.07;6.75;;;17.90;99.90;;;;;;4959008;28;20053;-79
2022/08/27 01:32:10;;;;;;;16.30;7.22;;;17.80;99.80;;;;;;4972030;28;20034;-80
2022/08/27 01:34:35;;;;;;;13.80;8.02;;;17.80;99.90;;;;;;4984058;28;20041;-79
2022/08/27 01:37:01;;;;;;;15.27;8.02;;;17.80;99.90;;;;;;4955406;28;20045;-78
2022/08/27 01:39:27;;;;;;;8.93;6.85;;;17.70;99.90;;;;;;4971989;28;20034;-79
2022/08/27 01:41:52;;;;;;;15.18;7.88;;;17.70;99.90;;;;;;4951005;28;21904;-79
2022/08/27 01:44:18;;;;;;;15.18;6.43;;;17.70;99.90;;;;;;4956968;28;20041;-79
2022/08/27 01:46:44;;;;;;;8.05;5.28;;;17.60;99.90;;;;;;4967562;28;20034;-79
2022/08/27 01:49:09;;;;;;;12.45;6.57;;;17.60;99.90;;;;;;4981280;28;20520;-79
2022/08/27 01:51:35;;;;;;;12.55;5.43;;;17.50;99.90;;;;;;4970999;28;20038;-79
2022/08/27 01:54:01;;;;;;;14.77;6.00;;;17.50;99.90;;;;;;4976986;28;20132;-79
2022/08/27 01:56:27;;;;;;;14.88;5.93;;;17.50;99.90;;;;;;4981596;28;20034;-79
2022/08/27 01:58:52;;;;;;;12.23;5.47;;;17.50;99.90;;;;;;4965273;28;20035;-79
2022/08/27 02:01:18;;;;;;;10.02;5.57;;;17.40;99.90;;;;;;4969727;28;20125;-79
2022/08/27 02:03:46;;;;;;;16.73;6.65;;;17.40;99.90;;;;;;4982456;28;20042;-80
2022/08/27 02:06:11;;;;;;;14.45;5.00;;;17.40;99.90;;;;;;4955415;28;20061;-79
2022/08/27 02:08:37;;;;;;;13.40;6.20;;;17.40;99.90;;;;;;4967578;28;20541;-84
2022/08/27 02:11:03;;;;;;;12.07;6.45;;;17.40;99.90;;;;;;4954249;28;20064;-83
2022/08/27 02:13:28;;;;;;;10.73;5.72;;;17.40;99.90;;;;;;4971161;28;20106;-83
2022/08/27 02:15:54;;;;;;;11.25;5.10;;;17.40;99.90;;;;;;4973760;28;20040;-83
2022/08/27 02:18:20;;;;;;;15.60;5.95;;;17.40;99.90;;;;;;4985114;28;20033;-83
2022/08/27 02:20:46;;;;;;;14.02;5.85;;;17.40;99.90;;;;;;4965759;28;20041;-84
2022/08/27 02:23:11;;;;;;;14.25;7.05;;;17.30;99.90;;;;;;4961491;28;20042;-80
2022/08/27 02:25:37;;;;;;;16.13;6.88;;;17.30;99.90;;;;;;4971406;28;20371;-79
2022/08/27 02:28:04;;;;;;;11.63;6.82;;;17.30;99.90;;;;;;4956975;28;20128;-80
2022/08/27 02:30:33;;;;;;;10.60;7.05;;;17.30;99.90;;;;;;4971165;28;20105;-80
2022/08/27 02:33:03;;;;;;;11.70;7.10;;;17.30;99.90;;;;;;4948961;28;20033;-79
2022/08/27 02:35:29;;;;;;;15.88;7.50;;;17.20;99.90;;;;;;4956607;28;20337;-79
2022/08/27 02:37:55;;;;;;;16.27;6.93;;;17.30;99.90;;;;;;4966838;28;20812;-80
2022/08/27 02:40:21;;;;;;;10.52;6.38;;;17.20;99.90;;;;;;4982086;28;20402;-80
2022/08/27 02:42:47;;;;;;;15.68;6.13;;;17.20;99.90;;;;;;4965348;28;20114;-81
2022/08/27 02:45:13;;;;;;;12.18;5.60;;;17.20;99.90;;;;;;4966484;28;20461;-79
2022/08/27 02:47:39;;;;;;;13.07;5.78;;;17.20;99.90;;;;;;4969130;28;20038;-79
2022/08/27 02:50:05;;;;;;;11.93;5.30;;;17.20;99.90;;;;;;4954740;28;20049;-78
2022/08/27 02:52:31;;;;;;;15.40;4.97;;;17.10;99.90;;;;;;4982672;28;20034;-80
2022/08/27 02:54:56;;;;;;;12.95;5.50;;;17.10;99.90;;;;;;4971699;28;20030;-78
2022/08/27 02:57:22;;;;;;;13.57;4.70;;;17.20;99.90;;;;;;4973044;28;20037;-79
2022/08/27 02:59:49;;;;;;;17.30;5.32;;;17.20;99.90;;;;;;4978537;28;20451;-77
2022/08/27 03:02:14;;;;;;;11.85;4.78;;;17.20;99.90;;;;;;4958963;28;20525;-78
2022/08/27 03:04:40;;;;;;;12.63;4.10;;;17.10;99.90;;;;;;4969888;28;20022;-78
2022/08/27 03:07:06;;;;;;;17.40;4.65;;;17.10;99.90;;;;;;4971032;28;20455;-78
2022/08/27 03:09:33;;;;;;;7.90;4.30;;;17.10;99.90;;;;;;4971966;28;20041;-77
2022/08/27 03:11:58;;;;;;;18.70;4.40;;;17.10;99.90;;;;;;4975658;28;20041;-78
2022/08/27 03:14:24;;;;;;;15.98;4.00;;;17.10;99.90;;;;;;4982432;28;20034;-79
2022/08/27 03:16:49;;;;;;;19.95;4.88;;;17.10;99.90;;;;;;4974193;28;20076;-83
2022/08/27 03:19:15;;;;;;;11.70;4.35;;;17.10;99.90;;;;;;4959613;28;20041;-83
2022/08/27 03:21:41;;;;;;;12.00;3.45;;;17.10;99.90;;;;;;4970729;28;20038;-83
2022/08/27 03:24:06;;;;;;;11.85;3.40;;;17.00;99.90;;;;;;4955348;28;20429;-83
2022/08/27 03:26:32;;;;;;;13.82;3.97;;;17.00;99.90;;;;;;4956659;28;20041;-84
2022/08/27 03:28:58;;;;;;;7.70;3.15;;;17.00;99.90;;;;;;4968316;28;20022;-85
2022/08/27 03:31:28;;;;;;;14.82;3.92;;;17.00;99.90;;;;;;4978182;28;20030;-85
2022/08/27 03:34:01;;;;;;;9.88;3.55;;;17.00;99.90;;;;;;4984762;28;20033;-82
2022/08/27 03:36:28;;;;;;;8.82;3.40;;;16.90;99.90;;;;;;4970385;28;20077;-82
2022/08/27 03:38:54;;;;;;;11.70;3.88;;;17.00;99.90;;;;;;4972451;28;20030;-83
2022/08/27 03:41:21;;;;;;;13.60;3.85;;;16.90;99.90;;;;;;4970150;28;20064;-83
2022/08/27 03:43:46;;;;;;;12.27;3.40;;;16.90;99.90;;;;;;4982552;28;20026;-83
2022/08/27 03:46:12;;;;;;;15.77;3.50;;;17.00;99.90;;;;;;4969946;28;20042;-84
2022/08/27 03:48:38;;;;;;;9.55;3.70;;;17.00;99.90;;;;;;4953572;28;20034;-83
2022/08/27 03:51:09;;;;;;;7.20;3.38;;;16.90;99.90;;;;;;4962115;28;20338;-84
2022/08/27 03:53:36;;;;;;;11.68;3.50;;;16.90;99.90;;;;;;4972505;28;20034;-83
2022/08/27 03:56:02;;;;;;;14.05;3.22;;;16.80;99.90;;;;;;4971403;28;20034;-85
2022/08/27 03:58:27;;;;;;;11.40;3.33;;;16.80;99.90;;;;;;4947909;28;20042;-82
2022/08/27 04:00:53;;;;;;;16.67;3.88;;;16.80;99.90;;;;;;4969433;28;20027;-83
2022/08/27 04:03:19;;;;;;;6.57;2.97;;;16.70;99.90;;;;;;4978276;28;20038;-83
2022/08/27 04:05:44;;;;;;;13.50;4.00;;;16.80;99.90;;;;;;4972890;28;20095;-82
2022/08/27 04:08:10;;;;;;;12.68;3.38;;;16.70;99.90;;;;;;4955273;28;20049;-82
2022/08/27 04:10:40;;;;;;;7.85;3.38;;;16.80;99.90;;;;;;4964216;28;20026;-80
2022/08/27 04:13:05;;;;;;;12.70;3.97;;;16.80;99.90;;;;;;4969110;28;20060;-81
2022/08/27 04:15:31;;;;;;;11.52;4.03;;;16.80;99.90;;;;;;4969947;28;20478;-82
2022/08/27 04:17:56;;;;;;;9.73;4.65;;;16.80;99.90;;;;;;4974487;28;20454;-83
2022/08/27 04:20:22;;;;;;;11.43;3.15;;;16.80;99.90;;;;;;4983540;28;20041;-83
2022/08/27 04:22:48;;;;;;;6.57;3.35;;;16.70;99.90;;;;;;4968460;28;20485;-81
2022/08/27 04:25:14;;;;;;;11.02;3.65;;;16.80;99.90;;;;;;4953700;28;20038;-81
2022/08/27 04:27:39;;;;;;;5.78;3.92;;;16.80;99.90;;;;;;4970216;28;20026;-82
2022/08/27 04:30:09;;;;;;;11.60;3.58;;;16.80;99.90;;;;;;4956368;28;20189;-82
2022/08/27 04:32:35;;;;;;;12.23;3.72;;;16.70;99.90;;;;;;4971177;28;20033;-82
2022/08/27 04:35:01;;;;;;;12.90;3.72;;;16.70;99.90;;;;;;4953509;28;20183;-82
2022/08/27 04:37:29;;;;;;;5.40;3.55;;;16.60;99.90;;;;;;4974957;28;20573;-84
2022/08/27 04:39:55;;;;;;;11.13;3.60;;;16.70;99.90;;;;;;4970108;28;20367;-84
2022/08/27 04:42:21;;;;;;;11.30;3.90;;;16.70;99.90;;;;;;4967437;28;20091;-84
2022/08/27 04:44:46;;;;;;;11.88;3.95;;;16.60;99.90;;;;;;4981915;28;20481;-83
2022/08/27 04:47:12;;;;;;;11.63;4.10;;;16.60;99.90;;;;;;4984915;28;20422;-83
2022/08/27 04:49:38;;;;;;;10.60;4.30;;;16.70;99.90;;;;;;4956883;28;20034;-83
2022/08/27 04:52:03;;;;;;;8.82;3.88;;;16.60;99.90;;;;;;4962548;28;20034;-84
2022/08/27 04:54:29;;;;;;;12.80;4.00;;;16.60;99.90;;;;;;4968544;28;20049;-83
2022/08/27 04:56:55;;;;;;;5.97;3.90;;;16.60;99.90;;;;;;4980594;28;20121;-80
2022/08/27 04:59:20;;;;;;;7.45;3.53;;;16.60;99.90;;;;;;4964319;28;20058;-82
2022/08/27 05:01:47;;;;;;;7.82;3.50;;;16.60;99.90;;;;;;4968537;28;20453;-84
2022/08/27 05:04:13;;;;;;;11.70;4.47;;;16.60;99.90;;;;;;4982309;28;20038;-83
2022/08/27 05:06:39;;;;;;;10.43;3.85;;;16.60;99.90;;;;;;4967591;28;20050;-83
2022/08/27 05:09:04;;;;;;;10.18;3.35;;;16.70;99.90;;;;;;4965947;28;20136;-84
2022/08/27 05:11:33;;;;;;;10.80;3.80;;;16.70;99.90;;;;;;4965839;28;20030;-84
2022/08/27 05:14:05;;;;;;;6.05;2.90;;;16.60;99.90;;;;;;4972251;28;20383;-84
2022/08/27 05:16:30;;;;;;;12.23;4.40;;;16.60;99.90;;;;;;4962873;28;20137;-85
2022/08/27 05:18:57;;;;;;;7.10;3.97;;;16.70;99.90;;;;;;4963162;28;20475;-86
2022/08/27 05:21:27;;;;;;;7.20;3.00;;;16.70;99.90;;;;;;4974818;28;20477;-85
2022/08/27 05:23:53;;;;;;;10.40;3.55;;;16.70;99.90;;;;;;4950549;28;20043;-85
2022/08/27 05:26:19;;;;;;;7.25;3.20;;;16.70;99.90;;;;;;4975820;28;20037;-84
2022/08/27 05:28:44;;;;;;;8.68;3.63;;;16.70;99.90;;;;;;4956232;28;20038;-84
2022/08/27 05:31:11;;;;;;;8.63;3.15;;;16.70;99.90;;;;;;4975898;28;20030;-85
2022/08/27 05:33:40;;;;;;;10.48;4.70;;;16.80;99.90;;;;;;4961935;28;20114;-85
2022/08/27 05:36:06;;;;;;;11.15;3.25;;;16.80;99.90;;;;;;4972194;28;20026;-85
2022/08/27 05:38:32;;;;;;;14.82;4.80;;;16.80;99.90;;;;;;4980908;28;20944;-84
2022/08/27 05:41:26;;;;;;;9.43;3.40;;;16.80;99.90;;;;;;4975017;28;20117;-84
2022/08/27 05:43:52;;;;;;;7.70;3.40;;;16.80;99.90;;;;;;4979283;28;20122;-84
2022/08/27 05:46:19;;;;;;;5.55;3.35;;;16.70;99.90;;;;;;4984411;28;20046;-84
2022/08/27 05:48:44;;;;;;;7.70;3.63;;;16.80;99.90;;;;;;4973169;28;20501;-82
2022/08/27 05:51:29;;;;;;;9.38;3.70;;;16.80;99.90;;;;;;4974940;28;20029;-84
2022/08/27 05:54:05;;;;;;;9.70;2.92;;;16.80;99.90;;;;;;4975725;28;20434;-84
2022/08/27 05:56:33;;;;;;;7.22;3.47;;;16.80;99.90;;;;;;4959502;28;20053;-83
2022/08/27 06:01:45;;;;;;;7.97;3.50;;;16.90;99.90;;;;;;4977713;28;20060;-84
2022/08/27 06:04:11;;;;;;;10.02;3.55;;;17.00;99.90;;;;;;4951941;28;20456;-85
2022/08/27 06:06:38;;;;;;;8.52;3.33;;;16.90;99.90;;;;;;4978803;28;20026;-84
2022/08/27 06:09:04;;;;;;;5.35;3.33;;;16.90;99.90;;;;;;4963384;28;20050;-83
2022/08/27 06:11:29;;;;;;;11.45;2.85;;;16.90;99.90;;;;;;4970837;28;20058;-83
2022/08/27 06:13:56;;;;;;;9.25;3.53;;;16.90;99.90;;;;;;4950102;28;20536;-83
2022/08/27 06:16:21;;;;;;;7.70;3.28;;;17.00;99.90;;;;;;4986252;28;20489;-84
2022/08/27 06:18:47;;;;;;;7.38;3.45;;;17.00;99.90;;;;;;4987693;28;20030;-84
2022/08/27 06:21:13;;;;;;;9.02;3.22;;;17.00;99.90;;;;;;4968783;28;20041;-83
2022/08/27 06:23:39;;;;;;;8.30;2.95;;;17.00;99.90;;;;;;4981982;28;20026;-83
2022/08/27 06:26:06;;;;;;;11.60;3.72;;;17.00;99.90;;;;;;4960411;28;20034;-83
2022/08/27 06:28:32;;;;;;;7.10;3.00;;;17.00;99.90;;;;;;4982462;28;20100;-84
2022/08/27 06:31:12;;;;;;;11.63;3.40;;;17.00;99.90;;;;;;4980678;28;20031;-82
2022/08/27 06:33:38;;;;;;;11.00;3.08;;;17.10;99.90;;;;;;4982646;28;20061;-84
2022/08/27 06:36:06;;;;;;;10.60;3.00;;;17.10;99.90;;;;;;4967449;28;20292;-83
2022/08/27 06:38:32;;;;;;;5.78;2.97;;;17.10;99.90;;;;;;4987442;28;20116;-84
2022/08/27 06:40:58;;;;;;;8.13;3.20;;;17.20;99.90;;;;;;4983302;28;20026;-83
2022/08/27 06:43:24;;;;;;;8.57;3.38;;;17.20;99.90;;;;;;4967574;28;20552;-83
2022/08/27 06:45:49;;;;;;;10.43;4.20;;;17.30;99.90;;;;;;4969467;28;20038;-84
2022/08/27 06:48:15;;;;;;;14.80;3.95;;;17.30;99.90;;;;;;4980906;28;20045;-84
2022/08/27 06:50:41;;;;;;;9.63;4.25;;;17.30;99.90;;;;;;4968744;28;20033;-84
2022/08/27 06:53:10;;;;;;;9.85;3.50;;;17.40;99.90;;;;;;4945034;28;20433;-84
2022/08/27 06:55:42;;;;;;;9.65;3.80;;;17.40;99.90;;;;;;4981453;28;20156;-84
2022/08/27 06:58:08;;;;;;;7.60;3.35;;;17.50;99.90;;;;;;4980756;28;20060;-84
2022/08/27 07:00:33;;;;;;;5.53;3.05;;;17.40;99.90;;;;;;4980065;28;20506;-85
2022/08/27 07:03:00;;;;;;;9.20;2.80;;;17.40;99.90;;;;;;4968618;28;20409;-83
2022/08/27 07:05:26;;;;;;;4.72;2.50;;;17.50;99.90;;;;;;4972096;28;20034;-85
2022/08/27 07:07:52;;;;;;;4.90;1.63;;;17.50;99.90;;;;;;4967570;28;20076;-84
2022/08/27 07:10:17;;;;;;;7.85;2.58;;;17.70;99.90;;;;;;4948611;28;20065;-85
2022/08/27 07:12:43;;;;;;;10.68;2.60;;;17.70;99.90;;;;;;4979381;28;20099;-85
2022/08/27 07:15:09;;;;;;;9.45;3.10;;;17.70;99.90;;;;;;4954851;28;20056;-86
2022/08/27 07:17:35;;;;;;;6.93;2.80;;;17.80;99.90;;;;;;4971000;28;20560;-84
2022/08/27 07:20:00;;;;;;;7.38;3.35;;;17.90;99.90;;;;;;4949044;28;20122;-85
2022/08/27 07:22:27;;;;;;;7.00;2.70;;;17.90;99.90;;;;;;4962634;28;20073;-83
2022/08/27 07:24:53;;;;;;;3.67;2.40;;;17.90;99.90;;;;;;4979684;28;20050;-83
2022/08/27 07:27:20;;;;;;;2.75;1.80;;;18.10;99.90;;;;;;4952100;28;20054;-83
2022/08/27 07:29:45;;;;;;;9.48;2.90;;;18.10;99.90;;;;;;4968411;28;20439;-83
2022/08/27 07:32:11;;;;;;;7.57;2.40;;;18.20;99.90;;;;;;4951966;28;20041;-85
2022/08/27 07:34:37;;;;;;;8.30;2.80;;;18.30;99.90;;;;;;4980841;28;20034;-84
2022/08/27 07:37:02;;;;;;;13.18;2.63;;;18.40;99.90;;;;;;4977863;28;20484;-84
2022/08/27 07:39:54;;;;;;;8.73;2.55;;;18.50;99.90;;;;;;4980824;28;20084;-83
2022/08/27 07:45:17;;;;;;;6.43;2.17;;;18.80;99.90;;;;;;4926492;28;20085;-85
2022/08/27 07:47:44;;;;;;;7.53;3.03;;;19.00;99.90;;;;;;4942069;28;1166369;-85
2022/08/27 07:50:11;;;;;;;5.75;2.60;;;19.10;99.90;;;;;;4959916;28;20325;-84
2022/08/27 07:52:37;;;;;;;6.25;2.63;;;19.20;99.90;;;;;;4961152;28;20032;-87
2022/08/27 07:55:03;;;;;;;5.10;2.38;;;19.40;99.90;;;;;;4974739;28;20492;-86
2022/08/27 07:57:30;;;;;;;4.07;2.30;;;19.50;99.90;;;;;;4978960;28;20419;-86
2022/08/27 07:59:55;;;;;;;4.88;2.00;;;19.70;99.90;;;;;;4971506;28;20029;-85
2022/08/27 08:02:21;;;;;;;8.07;2.67;;;19.80;99.90;;;;;;4963344;28;20502;-86
2022/08/27 08:04:46;;;;;;;4.07;2.08;;;19.90;99.90;;;;;;4969098;28;20037;-85
2022/08/27 08:07:12;;;;;;;13.23;2.42;;;20.10;99.90;;;;;;4957296;28;20046;-86
2022/08/27 08:09:38;;;;;;;8.88;2.28;;;20.30;99.90;;;;;;4978645;28;20035;-84
2022/08/27 08:12:03;;;;;;;5.70;2.17;;;20.40;99.90;;;;;;4953403;28;20033;-85
2022/08/27 08:14:31;;;;;;;6.93;2.67;;;20.50;99.90;;;;;;4965920;28;20034;-85
2022/08/27 08:17:00;;;;;;;6.65;2.25;;;20.70;99.90;;;;;;4980558;28;20034;-85
2022/08/27 08:19:26;;;;;;;11.90;2.70;;;20.80;99.90;;;;;;4955645;28;20858;-86
2022/08/27 08:21:52;;;;;;;6.40;2.53;;;20.90;99.90;;;;;;4978219;28;20034;-85
2022/08/27 08:24:18;;;;;;;10.90;2.75;;;21.00;99.90;;;;;;4970388;28;20125;-84
2022/08/27 08:26:43;;;;;;;7.63;2.40;;;21.20;99.90;;;;;;4967469;28;20685;-86
2022/08/27 08:29:09;;;;;;;8.00;2.30;;;21.30;99.90;;;;;;4963821;28;20052;-86
2022/08/27 08:31:34;;;;;;;4.72;2.00;;;21.40;99.90;;;;;;4977654;28;20121;-86
2022/08/27 08:34:00;;;;;;;8.60;2.00;;;21.60;99.90;;;;;;4961310;28;20022;-86
2022/08/27 08:36:26;;;;;;;4.65;2.05;;;21.70;99.90;;;;;;4960242;28;20034;-86
2022/08/27 08:38:52;;;;;;;5.40;1.70;;;21.80;99.90;;;;;;4967412;28;20026;-86
2022/08/27 08:41:30;;;;;;;4.15;1.95;;;22.00;99.90;;;;;;4980635;28;20080;-86
2022/08/27 08:43:57;;;;;;;5.63;1.98;;;22.10;99.90;;;;;;4982596;28;20019;-86
2022/08/27 08:46:29;;;;;;;5.15;2.17;;;22.20;99.90;;;;;;4964124;28;20108;-86
2022/08/27 08:48:57;;;;;;;7.90;1.58;;;22.20;99.90;;;;;;4959813;28;20112;-85
2022/08/27 08:51:35;;;;;;;5.97;1.65;;;22.40;99.90;;;;;;4986792;28;20037;-88
2022/08/27 08:54:19;;;;;;;7.95;1.50;;;22.60;99.90;;;;;;4951028;28;20501;-87
2022/08/27 08:56:51;;;;;;;4.07;1.58;;;22.70;99.90;;;;;;4955307;28;20029;-87
2022/08/27 08:59:22;;;;;;;5.28;2.13;;;22.80;99.90;;;;;;4971521;28;20118;-87
2022/08/27 09:01:48;;;;;;;10.20;2.25;;;22.80;99.90;;;;;;4984369;28;20038;-88
2022/08/27 09:04:14;;;;;;;6.38;1.58;;;22.90;99.90;;;;;;4966977;28;20398;-85
2022/08/27 09:07:04;;;;;;;3.45;1.30;;;23.00;99.90;;;;;;4982425;28;20034;-87
2022/08/27 09:09:37;;;;;;;2.70;1.60;;;23.00;99.90;;;;;;4982178;28;20121;-88
2022/08/27 09:12:10;;;;;;;6.45;1.60;;;23.30;99.90;;;;;;4972998;28;20404;-88
2022/08/27 09:14:49;;;;;;;7.85;1.63;;;23.40;99.90;;;;;;4985625;28;20053;-88
2022/08/27 09:17:15;;;;;;;5.55;1.35;;;23.40;99.90;;;;;;4976233;28;20070;-86
2022/08/27 09:19:41;;;;;;;3.50;1.30;;;23.50;99.90;;;;;;4981802;28;20073;-86
2022/08/27 09:22:25;;;;;;;13.07;2.30;;;23.60;99.90;;;;;;4962843;28;20034;-88
2022/08/27 09:24:54;;;;;;;8.82;2.75;;;23.70;99.90;;;;;;4953190;28;20486;-87
2022/08/27 09:27:19;;;;;;;5.72;1.73;;;23.80;99.90;;;;;;4989221;28;20033;-86
2022/08/27 09:29:47;;;;;;;4.10;1.38;;;23.80;99.90;;;;;;4971757;28;20026;-87
2022/08/27 09:32:12;;;;;;;9.50;2.40;;;23.90;99.90;;;;;;4972990;28;20113;-87
2022/08/27 09:34:41;;;;;;;5.13;1.65;;;24.00;99.90;;;;;;4971240;28;20026;-87
2022/08/27 09:37:10;;;;;;;5.53;1.23;;;24.10;99.90;;;;;;4966324;28;20034;-87
2022/08/27 09:39:55;;;;;;;4.97;1.67;;;24.20;99.90;;;;;;4975670;28;20038;-86
2022/08/27 09:42:28;;;;;;;3.42;1.63;;;24.20;99.70;;;;;;4956282;28;20058;-88
2022/08/27 09:44:54;;;;;;;5.55;1.33;;;24.30;98.80;;;;;;4990775;28;20040;-87
2022/08/27 09:47:20;;;;;;;5.10;1.77;;;24.40;99.00;;;;;;4973119;28;20820;-87
2022/08/27 09:49:46;;;;;;;7.90;1.55;;;24.50;99.40;;;;;;4979776;28;20050;-85
2022/08/27 09:52:29;;;;;;;3.80;1.50;;;24.60;99.10;;;;;;4981971;28;20030;-86
2022/08/27 09:54:55;;;;;;;3.63;1.17;;;24.70;98.50;;;;;;4976147;28;20030;-85
2022/08/27 09:57:39;;;;;;;4.80;1.38;;;24.80;97.40;;;;;;4983676;28;20030;-88
2022/08/27 10:00:13;;;;;;;6.30;1.50;;;24.80;97.40;;;;;;4959636;28;20042;-87
2022/08/27 10:02:51;;;;;;;5.97;1.20;;;24.90;97.00;;;;;;4966346;28;20050;-86
2022/08/27 10:05:35;;;;;;;7.75;1.67;;;25.00;97.20;;;;;;4971277;28;20034;-87
2022/08/27 10:08:04;;;;;;;8.75;1.60;;;25.30;97.20;;;;;;4960971;28;20038;-87
2022/08/27 10:10:51;;;;;;;3.42;1.30;;;25.40;96.30;;;;;;4983288;28;20574;-85
2022/08/27 10:13:47;;;;;;;4.38;1.25;;;25.50;95.80;;;;;;4984054;28;20081;-87
2022/08/27 10:16:21;;;;;;;5.43;1.50;;;25.50;95.40;;;;;;4975416;28;20593;-87
2022/08/27 10:18:53;;;;;;;4.70;1.63;;;25.60;95.00;;;;;;4997634;28;20042;-86
2022/08/27 10:21:28;;;;;;;6.43;1.77;;;25.70;94.30;;;;;;4981688;28;20576;-86
2022/08/27 10:23:55;;;;;;;1.70;1.10;;;25.70;94.40;;;;;;4972624;28;20077;-85
2022/08/27 10:26:51;;;;;;;7.35;1.77;;;25.70;94.90;;;;;;4987360;28;20038;-83
2022/08/27 10:29:27;;;;;;;5.10;1.40;;;25.80;93.80;;;;;;4990581;28;20429;-85
2022/08/27 10:32:08;;;;;;;5.88;1.58;;;25.90;94.00;;;;;;4965619;28;20037;-86
2022/08/27 10:35:08;;;;;;;6.97;2.25;;;26.10;93.80;;;;;;4981835;28;20026;-85
2022/08/27 10:37:50;;;;;;;9.02;1.48;;;26.20;93.40;;;;;;4990590;28;20026;-85
2022/08/27 10:40:30;;;;;;;5.70;1.58;;;26.40;92.80;;;;;;4984296;28;20450;-85
2022/08/27 10:43:14;;;;;;;9.13;1.42;;;26.70;93.40;;;;;;4985749;28;20034;-85
2022/08/27 10:46:03;;;;;;;7.35;1.75;;;26.70;93.90;;;;;;4986083;28;20663;-84
2022/08/27 10:48:54;;;;;;;6.80;1.83;;;26.90;91.30;;;;;;4969935;28;20116;-85
2022/08/27 10:51:31;;;;;;;4.45;1.75;;;27.00;90.40;;;;;;4950717;28;20102;-84
2022/08/27 10:54:20;;;;;;;5.82;1.95;;;27.10;90.90;;;;;;4969810;28;20181;-84
2022/08/27 10:56:52;;;;;;;5.50;1.63;;;27.20;90.70;;;;;;4979332;28;20030;-85
2022/08/27 10:59:24;;;;;;;3.05;1.30;;;27.50;91.00;;;;;;4982264;28;20081;-85
2022/08/27 11:02:07;;;;;;;5.65;1.70;;;27.60;90.20;;;;;;4989370;28;20193;-85
2022/08/27 11:04:54;;;;;;;5.30;1.70;;;27.80;90.20;;;;;;4971993;28;20085;-85
2022/08/27 11:07:21;;;;;;;;;;;28.00;88.50;;;;;;4983655;28;20026;-85
2022/08/27 11:10:07;;;;;;;5.07;1.52;;;28.10;90.00;;;;;;4976723;28;19917;-85
2022/08/27 11:12:37;;;;;;;4.57;1.77;;;28.50;84.80;;;;;;4964465;28;20058;-85
2022/08/27 11:15:18;;;;;;;4.45;1.75;;;28.60;82.30;;;;;;4966400;28;20037;-85
2022/08/27 11:18:04;;;;;;;4.88;2.00;;;28.80;81.50;;;;;;4968073;28;20038;-85
2022/08/27 11:20:34;;;;;;;6.18;2.60;;;28.80;82.30;;;;;;4955415;28;20073;-86
2022/08/27 11:23:11;;;;;;;4.60;1.42;;;29.00;82.70;;;;;;4951436;28;20049;-85
2022/08/27 11:25:51;;;;;;;2.90;1.30;;;29.10;82.10;;;;;;4973035;28;20038;-85
2022/08/27 11:28:22;;;;;;;3.22;1.70;;;29.50;80.50;;;;;;4983746;28;21184;-86
2022/08/27 11:30:47;;;;;;;4.82;1.77;;;29.60;80.60;;;;;;4985938;28;20038;-86
2022/08/27 11:33:32;;;;;;;8.70;2.63;;;29.80;78.90;;;;;;4988800;28;20413;-85
2022/08/27 11:36:16;;;;;;;9.82;2.10;;;30.00;75.50;;;;;;4973555;28;20560;-87
2022/08/27 11:39:02;;;;;;;7.47;1.60;;;30.20;76.90;;;;;;4968935;28;20034;-86
2022/08/27 11:41:44;;;;;;;2.13;1.20;;;30.30;75.40;;;;;;4967574;28;20394;-85
2022/08/27 11:44:09;;;;;;;4.35;1.73;;;30.30;73.70;;;;;;4982334;28;20033;-85
2022/08/27 11:46:42;;;;;;;6.10;2.13;;;30.30;73.30;;;;;;4957293;28;20026;-86
2022/08/27 11:49:07;;;;;;;5.97;2.20;;;30.40;74.50;;;;;;4956883;28;20065;-86
2022/08/27 11:51:34;;;;;;;7.70;2.20;;;30.60;71.60;;;;;;4966428;28;20557;-86
2022/08/27 11:54:05;;;;;;;4.53;1.80;;;30.60;70.80;;;;;;4968675;28;20025;-86
2022/08/27 11:56:39;;;;;;;6.72;1.85;;;30.60;71.70;;;;;;4967101;28;20076;-86
2022/08/27 11:59:31;;;;;;;5.80;1.70;;;30.60;69.80;;;;;;4288943;28;10000585;-86
2022/08/27 12:02:18;;;;;;;3.92;2.13;;;30.90;69.30;;;;;;4968072;28;20057;-86
2022/08/27 12:04:43;;;;;;;4.18;1.85;;;31.20;69.70;;;;;;4970126;28;20270;-86
2022/08/27 12:07:12;;;;;;;2.22;1.50;;;31.20;67.90;;;;;;4608360;28;10000545;-86
2022/08/27 12:09:55;;;;;;;7.55;1.92;;;31.20;68.20;;;;;;4977671;28;20042;-86
2022/08/27 12:12:36;;;;;;;12.18;2.65;;;31.20;67.50;;;;;;4967783;28;20034;-86
2022/08/27 12:15:16;;;;;;;3.92;1.83;;;31.40;67.30;;;;;;4965641;28;20034;-86
2022/08/27 12:17:54;;;;;;;6.57;2.20;;;31.30;66.80;;;;;;4963773;28;20412;-86
2022/08/27 12:20:25;;;;;;;5.78;2.10;;;31.50;65.00;;;;;;4964474;28;20022;-86
2022/08/27 12:26:00;;;;;;;4.57;1.52;;;31.20;63.30;;;;;;4984095;28;20457;-86
2022/08/27 12:28:26;;;;;;;4.40;1.65;;;30.80;64.20;;;;;;4963598;28;20109;-86
2022/08/27 12:30:51;;;;;;;14.15;2.42;;;30.70;64.10;;;;;;4970803;28;20438;-86
2022/08/27 12:33:20;;;;;;;4.07;1.50;;;30.50;63.30;;;;;;4966918;28;20490;-86
2022/08/27 12:35:50;;;;;;;4.75;1.77;;;30.40;63.50;;;;;;4978944;28;20486;-85
2022/08/27 12:38:33;;;;;;;5.53;1.55;;;30.20;63.00;;;;;;4966983;28;20088;-85
2022/08/27 12:41:02;;;;;;;2.50;1.23;;;30.00;62.70;;;;;;4974811;28;20038;-85
2022/08/27 12:43:32;;;;;;;3.13;1.77;;;29.70;61.30;;;;;;4980260;28;20528;-85
2022/08/27 12:46:01;;;;;;;3.80;1.42;;;29.30;63.20;;;;;;4962646;28;20034;-85
2022/08/27 12:48:29;;;;;;;6.35;1.73;;;29.30;63.00;;;;;;4984438;28;20430;-85
2022/08/27 12:50:57;;;;;;;5.35;1.70;;;29.20;63.80;;;;;;4989029;28;20473;-86
2022/08/27 12:53:34;;;;;;;4.85;1.15;;;29.20;63.10;;;;;;4967128;28;20033;-86
2022/08/27 12:56:17;;;;;;;4.28;1.50;;;29.00;64.20;;;;;;4983614;28;20303;-85
2022/08/27 12:59:12;;;;;;;4.18;1.60;;;28.80;61.90;;;;;;4984191;28;20030;-85
2022/08/27 13:01:58;;;;;;;2.67;1.48;;;28.70;62.60;;;;;;4975417;28;20042;-85
2022/08/27 13:04:26;;;;;;;5.78;1.70;;;28.50;62.70;;;;;;4993466;28;20049;-85
2022/08/27 13:06:53;;;;;;;5.93;1.65;;;28.40;63.70;;;;;;4951727;28;20050;-85